Welcome to Northern Hawkes Bay. New Zealand.
PWS Header
      nz Flag



Hit Counter


W3C Valid W3C Valid logo


    Wairoa

Select any of the Stations below to visit their websites.










Historic Data from Weather Underground
Select the location of interest below. Wairoa is the default. Please have patience, this Data is slow to load in.
Northern Hawkes Bay Historical Data
Daily Summary for December 1, 2017 Units:  Metric    English   Both
« Previous Day
Next Day »
Daily Weekly Monthly Yearly Custom
  High: Low: Average:
Temperature: 25.5 °C 12.1 °C 19.3 °C
Dew Point: 17.4 °C 11.7 °C 14.7 °C
Humidity: 99% 54% 76%
Wind Speed: 11.1km/h 0.0km/h 3.8km/h
Wind Gust: 23.3km/h - -
Wind- - South
Pressure: 1028.7 hPa 1025.6 hPa -
Precipitation: 0.0 mm    
Historical Graphs
 
 
Tabular Data for December 1, 2017
Time Temperature Dew Point Pressure Wind Wind Speed Wind Gust Humidity Rainfall Rate (Hourly) solar
00:03 15.1 °C 14.5 °C 1027.0 hPa Calm     96% 0.0 mm 0 W/m2
00:08 15.0 °C 14.4 °C 1027.3 hPa Calm     96% 0.0 mm 0 W/m2
00:13 15.0 °C 14.4 °C 1027.0 hPa Calm     96% 0.0 mm 0 W/m2
00:23 14.8 °C 14.3 °C 1027.0 hPa Calm     97% 0.0 mm 0 W/m2
00:28 14.7 °C 14.2 °C 1027.3 hPa Calm     97% 0.0 mm 0 W/m2
00:33 14.6 °C 14.3 °C 1027.3 hPa Calm     98% 0.0 mm 0 W/m2
00:38 14.5 °C 14.2 °C 1027.3 hPa Calm     98% 0.0 mm 0 W/m2
00:43 14.4 °C 14.1 °C 1027.3 hPa NW 1.1 km/h 2.6 km/h 98% 0.0 mm 0 W/m2
00:48 14.4 °C 14.1 °C 1027.3 hPa NW 1.1 km/h 3.5 km/h 98% 0.0 mm 0 W/m2
00:53 14.4 °C 14.1 °C 1027.3 hPa NW 3.5 km/h 5.0 km/h 98% 0.0 mm 0 W/m2
01:11 14.1 °C 13.9 °C 1027.0 hPa North 1.1 km/h 2.6 km/h 99% 0.0 mm 0 W/m2
01:16 14.2 °C 14.1 °C 1027.0 hPa North 1.1 km/h 2.6 km/h 99% 0.0 mm 0 W/m2
01:21 14.2 °C 14.1 °C 1027.0 hPa Calm   2.6 km/h 99% 0.0 mm 0 W/m2
01:26 14.2 °C 14.1 °C 1027.0 hPa Calm   2.6 km/h 99% 0.0 mm 0 W/m2
01:31 14.2 °C 14.1 °C 1027.0 hPa Calm     99% 0.0 mm 0 W/m2
01:36 14.2 °C 14.1 °C 1027.0 hPa Calm     99% 0.0 mm 0 W/m2
01:41 14.1 °C 13.9 °C 1027.0 hPa North 1.1 km/h 3.5 km/h 99% 0.0 mm 0 W/m2
01:46 14.1 °C 13.9 °C 1027.0 hPa North 2.6 km/h 3.5 km/h 99% 0.0 mm 0 W/m2
02:05 14.1 °C 13.9 °C 1027.0 hPa NNW 1.1 km/h 3.5 km/h 99% 0.0 mm 0 W/m2
02:10 14.0 °C 13.8 °C 1027.0 hPa NNW 2.6 km/h 3.5 km/h 99% 0.0 mm 0 W/m2
02:20 13.9 °C 13.8 °C 1027.0 hPa NNW 2.6 km/h 3.5 km/h 99% 0.0 mm 0 W/m2
02:25 13.8 °C 13.7 °C 1027.0 hPa Calm   3.5 km/h 99% 0.0 mm 0 W/m2
02:35 13.6 °C 13.4 °C 1027.0 hPa Calm     99% 0.0 mm 0 W/m2
02:45 13.5 °C 13.3 °C 1026.6 hPa Calm     99% 0.0 mm 0 W/m2
03:02 13.4 °C 13.3 °C 1026.6 hPa NW 2.6 km/h 5.0 km/h 99% 0.0 mm 0 W/m2
03:07 13.4 °C 13.3 °C 1026.6 hPa NNW 3.5 km/h 6.1 km/h 99% 0.0 mm 0 W/m2
03:17 13.5 °C 13.3 °C 1026.6 hPa NNW 5.0 km/h 7.2 km/h 99% 0.0 mm 0 W/m2
03:27 13.5 °C 13.3 °C 1026.6 hPa NNW 1.1 km/h 7.2 km/h 99% 0.0 mm 0 W/m2
03:37 13.4 °C 13.3 °C 1026.6 hPa North 1.1 km/h 5.0 km/h 99% 0.0 mm 0 W/m2
03:47 13.2 °C 13.1 °C 1026.6 hPa NNE 1.1 km/h 3.5 km/h 99% 0.0 mm 0 W/m2
03:52 13.1 °C 12.9 °C 1026.6 hPa Calm   3.5 km/h 99% 0.0 mm 0 W/m2
03:57 13.0 °C 12.8 °C 1026.6 hPa NNE 1.1 km/h 3.5 km/h 99% 0.0 mm 0 W/m2
04:07 12.9 °C 12.4 °C 1026.6 hPa Calm   3.5 km/h 97% 0.0 mm 0 W/m2
04:17 12.9 °C 12.4 °C 1026.6 hPa Calm   2.6 km/h 97% 0.0 mm 0 W/m2
04:34 12.6 °C 12.2 °C 1027.0 hPa Calm   2.6 km/h 97% 0.0 mm 0 W/m2
04:39 12.5 °C 12.1 °C 1027.0 hPa NW 1.1 km/h 3.5 km/h 97% 0.0 mm 0 W/m2
04:44 12.5 °C 12.1 °C 1027.0 hPa NW 1.1 km/h 3.5 km/h 97% 0.0 mm 0 W/m2
05:04 12.4 °C 11.9 °C 1027.0 hPa NNW 2.6 km/h 5.0 km/h 97% 0.0 mm 0 W/m2
05:14 12.3 °C 11.8 °C 1027.0 hPa NNW 2.6 km/h 5.0 km/h 97% 0.0 mm 0 W/m2
05:19 12.2 °C 11.7 °C 1027.0 hPa NNW 2.6 km/h 5.0 km/h 97% 0.0 mm 0 W/m2
05:24 12.1 °C 11.7 °C 1027.0 hPa NW 2.6 km/h 5.0 km/h 97% 0.0 mm 0 W/m2
05:29 12.1 °C 11.7 °C 1027.0 hPa NW 2.6 km/h 5.0 km/h 97% 0.0 mm 0 W/m2
05:34 12.1 °C 11.7 °C 1027.3 hPa NW 3.5 km/h 5.0 km/h 97% 0.0 mm 0 W/m2
05:39 12.1 °C 11.7 °C 1027.3 hPa NW 2.6 km/h 6.1 km/h 97% 0.0 mm 0 W/m2
05:54 12.3 °C 11.8 °C 1027.3 hPa NNW 3.5 km/h 6.1 km/h 97% 0.0 mm 9 W/m2
06:04 12.6 °C 12.2 °C 1027.3 hPa NNW 3.5 km/h 7.2 km/h 97% 0.0 mm 18 W/m2
06:14 12.6 °C 12.2 °C 1027.3 hPa NW 3.5 km/h 6.1 km/h 97% 0.0 mm 25 W/m2
06:19 12.7 °C 12.2 °C 1027.3 hPa NW 2.6 km/h 6.1 km/h 97% 0.0 mm 41 W/m2
06:24 12.9 °C 12.4 °C 1027.7 hPa NNW 6.1 km/h 9.7 km/h 97% 0.0 mm 69 W/m2
06:34 13.3 °C 13.2 °C 1027.3 hPa NNW 5.0 km/h 11.1 km/h 99% 0.0 mm 84 W/m2
06:39 13.4 °C 13.3 °C 1027.7 hPa NNW 3.5 km/h 11.1 km/h 99% 0.0 mm 93 W/m2
06:45 13.5 °C 13.3 °C 1027.7 hPa NNW 5.0 km/h 12.2 km/h 99% 0.0 mm 112 W/m2
07:01 14.0 °C 13.8 °C 1027.7 hPa NNW 3.5 km/h 9.7 km/h 99% 0.0 mm 128 W/m2
07:06 14.3 °C 14.2 °C 1027.7 hPa NNW 8.7 km/h 12.2 km/h 99% 0.0 mm 138 W/m2
07:11 14.3 °C 14.2 °C 1027.7 hPa NNW 8.7 km/h 13.4 km/h 99% 0.0 mm 148 W/m2
07:16 14.5 °C 14.3 °C 1027.7 hPa NNW 6.1 km/h 13.4 km/h 99% 0.0 mm 158 W/m2
07:27 15.0 °C 14.7 °C 1027.7 hPa NNW 5.0 km/h 11.1 km/h 98% 0.0 mm 169 W/m2
07:37 15.4 °C 14.6 °C 1027.7 hPa NNW 6.1 km/h 13.4 km/h 95% 0.0 mm 208 W/m2
07:47 15.6 °C 14.7 °C 1028.0 hPa NNW 7.2 km/h 14.8 km/h 94% 0.0 mm 231 W/m2
08:12 16.5 °C 15.1 °C 1028.0 hPa North 5.0 km/h 11.1 km/h 91% 0.0 mm 283 W/m2
08:17 17.0 °C 15.0 °C 1028.0 hPa North 6.1 km/h 11.1 km/h 88% 0.0 mm 299 W/m2
08:22 17.1 °C 14.7 °C 1028.0 hPa NNW 3.5 km/h 11.1 km/h 86% 0.0 mm 313 W/m2
08:27 17.9 °C 15.6 °C 1028.0 hPa NNW 1.1 km/h 11.1 km/h 86% 0.0 mm 327 W/m2
08:32 18.2 °C 15.7 °C 1028.0 hPa NNW 8.7 km/h 12.2 km/h 85% 0.0 mm 342 W/m2
08:37 18.2 °C 15.4 °C 1028.0 hPa NNW 6.1 km/h 12.2 km/h 84% 0.0 mm 356 W/m2
08:47 18.6 °C 15.8 °C 1028.0 hPa NNW 3.5 km/h 12.2 km/h 84% 0.0 mm 383 W/m2
08:52 18.9 °C 15.8 °C 1028.0 hPa NNW 5.0 km/h 12.2 km/h 82% 0.0 mm 398 W/m2
08:57 18.9 °C 15.6 °C 1028.0 hPa NNW 6.1 km/h 9.7 km/h 81% 0.0 mm 412 W/m2
09:02 19.2 °C 15.9 °C 1028.3 hPa NNW 5.0 km/h 9.7 km/h 81% 0.0 mm 428 W/m2
09:07 19.6 °C 16.1 °C 1028.0 hPa NNW 3.5 km/h 8.7 km/h 80% 0.0 mm 444 W/m2
09:08 19.8 °C 16.3 °C 1028.0 hPa NNW 3.5 km/h 8.7 km/h 80% 0.0 mm 448 W/m2
09:18 20.1 °C 15.8 °C 1028.3 hPa NNW 1.1 km/h 8.7 km/h 76% 0.0 mm 482 W/m2
09:28 21.7 °C 16.4 °C 1028.0 hPa East 3.5 km/h 7.2 km/h 72% 0.0 mm 526 W/m2
09:38 21.9 °C 15.7 °C 1028.3 hPa NE 1.1 km/h 8.7 km/h 68% 0.0 mm 561 W/m2
09:43 22.0 °C 15.6 °C 1028.3 hPa Calm   7.2 km/h 67% 0.0 mm 580 W/m2
09:48 22.4 °C 14.8 °C 1028.3 hPa NNE 2.6 km/h 8.7 km/h 62% 0.0 mm 599 W/m2
09:53 22.0 °C 14.7 °C 1028.3 hPa ENE 3.5 km/h 17.2 km/h 63% 0.0 mm 201 W/m2
10:03 21.8 °C 16.6 °C 1028.3 hPa SSE 7.2 km/h 13.4 km/h 72% 0.0 mm 658 W/m2
10:08 21.4 °C 16.4 °C 1028.3 hPa SSE 9.7 km/h 14.8 km/h 73% 0.0 mm 673 W/m2
10:13 21.2 °C 16.4 °C 1028.7 hPa SSE 7.2 km/h 14.8 km/h 74% 0.0 mm 684 W/m2
10:23 21.4 °C 16.6 °C 1028.7 hPa SE 6.1 km/h 14.8 km/h 74% 0.0 mm 708 W/m2
10:28 21.4 °C 16.4 °C 1028.7 hPa SSE 5.0 km/h 14.8 km/h 73% 0.0 mm 720 W/m2
10:38 21.3 °C 16.1 °C 1028.3 hPa SSE 2.6 km/h 15.8 km/h 72% 0.0 mm 739 W/m2
10:43 21.8 °C 15.7 °C 1028.7 hPa SSE 7.2 km/h 15.8 km/h 68% 0.0 mm 753 W/m2
10:48 21.8 °C 15.2 °C 1028.7 hPa SE 6.1 km/h 14.8 km/h 66% 0.0 mm 760 W/m2
10:58 21.8 °C 16.1 °C 1028.7 hPa SE 3.5 km/h 14.8 km/h 70% 0.0 mm 775 W/m2
11:26 22.0 °C 15.8 °C 1028.3 hPa SE 11.1 km/h 23.3 km/h 68% 0.0 mm 805 W/m2
11:36 22.0 °C 15.6 °C 1028.3 hPa SE 3.5 km/h 23.3 km/h 67% 0.0 mm 812 W/m2
11:46 22.5 °C 15.6 °C 1028.3 hPa SE 3.5 km/h 15.8 km/h 65% 0.0 mm 824 W/m2
12:02 22.5 °C 15.4 °C 1028.3 hPa ESE 2.6 km/h 14.8 km/h 64% 0.0 mm 829 W/m2
12:07 22.8 °C 15.7 °C 1028.3 hPa SE 7.2 km/h 17.2 km/h 64% 0.0 mm 831 W/m2
12:17 22.3 °C 15.7 °C 1028.3 hPa SE 7.2 km/h 21.9 km/h 66% 0.0 mm 831 W/m2
12:18 22.3 °C 15.9 °C 1028.0 hPa SE 3.5 km/h 21.9 km/h 67% 0.0 mm 831 W/m2
12:28 22.3 °C 16.6 °C 1028.3 hPa SSE 6.1 km/h 19.5 km/h 70% 0.0 mm 831 W/m2
12:33 22.6 °C 16.9 °C 1028.3 hPa SSE 11.1 km/h 19.5 km/h 70% 0.0 mm 830 W/m2
12:38 22.5 °C 17.0 °C 1028.0 hPa SSE 5.0 km/h 20.9 km/h 71% 0.0 mm 831 W/m2
12:43 22.7 °C 16.7 °C 1028.0 hPa SSE 5.0 km/h 20.9 km/h 69% 0.0 mm 829 W/m2
12:48 22.8 °C 16.6 °C 1028.0 hPa SE 8.7 km/h 14.8 km/h 68% 0.0 mm 828 W/m2
12:53 22.9 °C 17.4 °C 1028.0 hPa SE 7.2 km/h 14.8 km/h 71% 0.0 mm 830 W/m2
12:58 22.9 °C 16.9 °C 1027.7 hPa SSE 5.0 km/h 14.8 km/h 69% 0.0 mm 827 W/m2
13:03 23.5 °C 16.8 °C 1028.0 hPa ESE 9.7 km/h 18.3 km/h 66% 0.0 mm 824 W/m2
13:08 23.3 °C 16.8 °C 1028.0 hPa ESE 5.0 km/h 18.3 km/h 67% 0.0 mm 821 W/m2
13:13 23.3 °C 16.6 °C 1028.0 hPa SE 9.7 km/h 15.8 km/h 66% 0.0 mm 817 W/m2
13:18 23.4 °C 16.9 °C 1028.0 hPa SE 5.0 km/h 15.8 km/h 67% 0.0 mm 812 W/m2
13:28 23.9 °C 16.4 °C 1027.7 hPa SE 5.0 km/h 18.3 km/h 63% 0.0 mm 802 W/m2
13:33 24.0 °C 16.6 °C 1027.7 hPa SE 2.6 km/h 18.3 km/h 63% 0.0 mm 795 W/m2
13:38 24.4 °C 17.2 °C 1027.7 hPa SE 3.5 km/h 18.3 km/h 64% 0.0 mm 802 W/m2
13:43 24.4 °C 16.7 °C 1027.7 hPa SE 6.1 km/h 15.8 km/h 62% 0.0 mm 791 W/m2
13:48 24.4 °C 16.9 °C 1027.7 hPa SE 3.5 km/h 15.8 km/h 63% 0.0 mm 785 W/m2
14:08 23.9 °C 16.9 °C 1027.3 hPa SE 6.1 km/h 17.2 km/h 65% 0.0 mm 753 W/m2
14:13 24.1 °C 16.1 °C 1027.3 hPa SE 5.0 km/h 17.2 km/h 61% 0.0 mm 751 W/m2
14:23 24.4 °C 16.9 °C 1027.3 hPa ESE 8.7 km/h 19.5 km/h 63% 0.0 mm 738 W/m2
14:33 24.8 °C 17.1 °C 1027.3 hPa SE 8.7 km/h 15.8 km/h 62% 0.0 mm 725 W/m2
14:38 24.8 °C 16.8 °C 1027.0 hPa SSE 6.1 km/h 15.8 km/h 61% 0.0 mm 718 W/m2
14:43 24.8 °C 16.8 °C 1027.3 hPa SE 8.7 km/h 15.8 km/h 61% 0.0 mm 709 W/m2
14:48 24.8 °C 16.8 °C 1027.3 hPa ESE 5.0 km/h 14.8 km/h 61% 0.0 mm 702 W/m2
14:53 24.9 °C 16.9 °C 1027.3 hPa ESE 5.0 km/h 15.8 km/h 61% 0.0 mm 696 W/m2
14:58 24.8 °C 16.6 °C 1027.3 hPa ESE 3.5 km/h 15.8 km/h 60% 0.0 mm 688 W/m2
15:03 25.2 °C 16.4 °C 1027.0 hPa SE 7.2 km/h 15.8 km/h 58% 0.0 mm 679 W/m2
15:08 24.8 °C 16.3 °C 1027.0 hPa ESE 2.6 km/h 15.8 km/h 59% 0.0 mm 669 W/m2
15:13 25.0 °C 16.2 °C 1027.0 hPa East 2.6 km/h 17.2 km/h 58% 0.0 mm 657 W/m2
15:23 25.3 °C 15.9 °C 1027.0 hPa ESE 5.0 km/h 14.8 km/h 56% 0.0 mm 638 W/m2
15:28 25.5 °C 16.1 °C 1026.6 hPa ESE 7.2 km/h 14.8 km/h 56% 0.0 mm 636 W/m2
15:33 25.3 °C 15.9 °C 1026.6 hPa ESE 5.0 km/h 15.8 km/h 56% 0.0 mm 618 W/m2
15:38 25.3 °C 16.2 °C 1026.6 hPa SE 3.5 km/h 15.8 km/h 57% 0.0 mm 607 W/m2
15:44 25.3 °C 15.9 °C 1026.6 hPa SE 5.0 km/h 15.8 km/h 56% 0.0 mm 596 W/m2
16:06 25.3 °C 15.3 °C 1026.3 hPa SE 6.1 km/h 14.8 km/h 54% 0.0 mm 552 W/m2
16:15 25.1 °C 15.2 °C 1026.3 hPa ESE 7.2 km/h 14.8 km/h 54% 0.0 mm 531 W/m2
16:20 24.9 °C 15.6 °C 1026.3 hPa ESE 6.1 km/h 14.8 km/h 56% 0.0 mm 520 W/m2
16:25 25.1 °C 15.4 °C 1026.3 hPa SE 8.7 km/h 14.8 km/h 55% 0.0 mm 506 W/m2
16:27 25.0 °C 15.3 °C 1026.3 hPa ESE 6.1 km/h 14.8 km/h 55% 0.0 mm 505 W/m2
16:33 25.1 °C 15.4 °C 1026.0 hPa ESE 6.1 km/h 17.2 km/h 55% 0.0 mm 489 W/m2
16:38 25.1 °C 15.4 °C 1026.0 hPa SE 5.0 km/h 17.2 km/h 55% 0.0 mm 476 W/m2
16:42 25.1 °C 15.2 °C 1026.3 hPa SE 7.2 km/h 17.2 km/h 54% 0.0 mm 467 W/m2
16:47 25.2 °C 15.3 °C 1026.0 hPa SE 9.7 km/h 17.2 km/h 54% 0.0 mm 456 W/m2
16:52 24.9 °C 15.6 °C 1026.0 hPa ESE 9.7 km/h 18.3 km/h 56% 0.0 mm 443 W/m2
16:57 25.0 °C 15.3 °C 1026.0 hPa ESE 5.0 km/h 18.3 km/h 55% 0.0 mm 430 W/m2
16:58 25.1 °C 15.4 °C 1026.0 hPa ESE 8.7 km/h 18.3 km/h 55% 0.0 mm 430 W/m2
17:03 25.5 °C 15.6 °C 1026.0 hPa ESE 7.2 km/h 17.2 km/h 54% 0.0 mm 417 W/m2
17:08 25.3 °C 15.3 °C 1025.6 hPa ESE 5.0 km/h 17.2 km/h 54% 0.0 mm 404 W/m2
17:13 25.4 °C 15.4 °C 1026.0 hPa ESE 6.1 km/h 17.2 km/h 54% 0.0 mm 391 W/m2
17:18 25.3 °C 15.3 °C 1026.0 hPa SE 6.1 km/h 14.8 km/h 54% 0.0 mm 377 W/m2
17:33 24.8 °C 15.4 °C 1025.6 hPa ESE 11.1 km/h 15.8 km/h 56% 0.0 mm 339 W/m2
17:38 24.5 °C 15.2 °C 1025.6 hPa ESE 6.1 km/h 17.2 km/h 56% 0.0 mm 326 W/m2
17:48 24.3 °C 15.3 °C 1025.6 hPa East 6.1 km/h 18.3 km/h 57% 0.0 mm 303 W/m2
17:58 24.5 °C 15.4 °C 1025.6 hPa ESE 3.5 km/h 15.8 km/h 57% 0.0 mm 277 W/m2
18:03 24.5 °C 15.2 °C 1025.6 hPa ESE 8.7 km/h 18.3 km/h 56% 0.0 mm 266 W/m2
18:08 24.2 °C 15.2 °C 1025.6 hPa ESE 8.7 km/h 18.3 km/h 57% 0.0 mm 256 W/m2
18:24 24.9 °C 15.8 °C 1025.6 hPa ESE 7.2 km/h 15.8 km/h 57% 0.0 mm 219 W/m2
18:29 24.5 °C 15.2 °C 1025.6 hPa East 7.2 km/h 14.8 km/h 56% 0.0 mm 208 W/m2
18:35 24.8 °C 15.4 °C 1026.0 hPa ESE 6.1 km/h 14.8 km/h 56% 0.0 mm 197 W/m2
18:40 24.5 °C 15.2 °C 1026.0 hPa ESE 9.7 km/h 15.8 km/h 56% 0.0 mm 187 W/m2
18:45 24.3 °C 15.0 °C 1026.0 hPa East 9.7 km/h 15.8 km/h 56% 0.0 mm 176 W/m2
18:50 24.5 °C 15.2 °C 1026.0 hPa East 7.2 km/h 14.8 km/h 56% 0.0 mm 167 W/m2
18:55 24.4 °C 14.8 °C 1026.0 hPa East 8.7 km/h 15.8 km/h 55% 0.0 mm 157 W/m2
19:00 24.3 °C 14.4 °C 1026.0 hPa ENE 8.7 km/h 15.8 km/h 54% 0.0 mm 149 W/m2
19:10 24.4 °C 14.5 °C 1026.0 hPa NE 8.7 km/h 21.9 km/h 54% 0.0 mm 129 W/m2
19:20 23.7 °C 14.4 °C 1026.0 hPa NE 11.1 km/h 18.3 km/h 56% 0.0 mm 109 W/m2
19:25 23.5 °C 14.5 °C 1026.3 hPa NE 8.7 km/h 18.3 km/h 57% 0.0 mm 98 W/m2
19:30 23.3 °C 14.3 °C 1026.3 hPa NE 8.7 km/h 17.2 km/h 57% 0.0 mm 88 W/m2
19:35 23.2 °C 14.2 °C 1026.3 hPa ENE 5.0 km/h 13.4 km/h 57% 0.0 mm 77 W/m2
19:40 23.0 °C 14.1 °C 1026.3 hPa ENE 5.0 km/h 13.4 km/h 57% 0.0 mm 67 W/m2
19:50 22.3 °C 14.2 °C 1026.3 hPa NE 6.1 km/h 13.4 km/h 60% 0.0 mm 42 W/m2
19:55 22.0 °C 13.9 °C 1026.3 hPa NE 2.6 km/h 13.4 km/h 60% 0.0 mm 21 W/m2
20:00 21.4 °C 14.1 °C 1026.3 hPa NNE 7.2 km/h 13.4 km/h 63% 0.0 mm 10 W/m2
20:05 20.7 °C 13.9 °C 1026.6 hPa NNE 5.0 km/h 13.4 km/h 65% 0.0 mm 6 W/m2
20:10 20.4 °C 13.8 °C 1026.6 hPa NE 1.1 km/h 13.4 km/h 66% 0.0 mm 4 W/m2
20:20 19.9 °C 14.1 °C 1026.6 hPa NNE 2.6 km/h 7.2 km/h 69% 0.0 mm 0 W/m2
20:25 19.7 °C 14.1 °C 1026.6 hPa Calm   7.2 km/h 70% 0.0 mm 0 W/m2
20:30 19.5 °C 14.1 °C 1027.0 hPa NE 1.1 km/h 7.2 km/h 71% 0.0 mm 0 W/m2
20:35 19.4 °C 14.0 °C 1027.0 hPa Calm   7.2 km/h 71% 0.0 mm 0 W/m2
20:40 19.3 °C 13.9 °C 1027.0 hPa NE 1.1 km/h 8.7 km/h 71% 0.0 mm 0 W/m2
20:45 19.1 °C 13.7 °C 1027.0 hPa Calm   8.7 km/h 71% 0.0 mm 0 W/m2
20:55 18.7 °C 14.0 °C 1027.0 hPa Calm   5.0 km/h 74% 0.0 mm 0 W/m2
21:00 18.5 °C 13.8 °C 1027.0 hPa Calm   5.0 km/h 74% 0.0 mm 0 W/m2
21:05 18.3 °C 13.8 °C 1027.0 hPa Calm   1.1 km/h 75% 0.0 mm 0 W/m2
21:10 18.1 °C 13.6 °C 1027.0 hPa Calm   1.1 km/h 75% 0.0 mm 0 W/m2
21:15 18.0 °C 13.5 °C 1027.0 hPa Calm   1.1 km/h 75% 0.0 mm 0 W/m2
21:20 18.0 °C 13.7 °C 1027.0 hPa Calm   3.5 km/h 76% 0.0 mm 0 W/m2
21:25 17.8 °C 13.3 °C 1027.3 hPa Calm   3.5 km/h 75% 0.0 mm 0 W/m2
21:30 17.8 °C 13.5 °C 1027.3 hPa Calm   1.1 km/h 76% 0.0 mm 0 W/m2
21:36 17.7 °C 13.6 °C 1027.3 hPa North 1.1 km/h 6.1 km/h 77% 0.0 mm 0 W/m2
21:41 17.7 °C 13.6 °C 1027.7 hPa North 1.1 km/h 6.1 km/h 77% 0.0 mm 0 W/m2
21:46 17.6 °C 13.7 °C 1027.3 hPa Calm   5.0 km/h 78% 0.0 mm 0 W/m2
21:52 17.5 °C 13.6 °C 1027.7 hPa Calm   3.5 km/h 78% 0.0 mm 0 W/m2
21:57 17.5 °C 13.6 °C 1027.3 hPa Calm   1.1 km/h 78% 0.0 mm 0 W/m2
22:02 17.3 °C 13.4 °C 1027.3 hPa Calm   2.6 km/h 78% 0.0 mm 0 W/m2
22:13 17.2 °C 13.7 °C 1027.7 hPa Calm   3.5 km/h 80% 0.0 mm 0 W/m2
22:18 17.3 °C 13.8 °C 1027.7 hPa Calm   3.5 km/h 80% 0.0 mm 0 W/m2
22:23 17.1 °C 13.6 °C 1027.7 hPa Calm   2.6 km/h 80% 0.0 mm 0 W/m2
22:28 17.0 °C 13.7 °C 1027.7 hPa Calm   2.6 km/h 81% 0.0 mm 0 W/m2
22:32 17.0 °C 13.7 °C 1027.7 hPa Calm   1.1 km/h 81% 0.0 mm 0 W/m2
22:37 17.0 °C 13.7 °C 1027.7 hPa Calm   1.1 km/h 81% 0.0 mm 0 W/m2
22:42 16.8 °C 13.7 °C 1027.7 hPa Calm     82% 0.0 mm 0 W/m2
22:52 16.7 °C 13.6 °C 1027.7 hPa Calm   1.1 km/h 82% 0.0 mm 0 W/m2
22:57 16.6 °C 13.7 °C 1027.7 hPa Calm   1.1 km/h 83% 0.0 mm 0 W/m2
23:02 16.5 °C 13.6 °C 1027.7 hPa Calm     83% 0.0 mm 0 W/m2
23:12 16.4 °C 13.7 °C 1027.7 hPa Calm     84% 0.0 mm 0 W/m2
23:17 16.4 °C 13.7 °C 1027.7 hPa Calm     84% 0.0 mm 0 W/m2
23:22 16.3 °C 13.6 °C 1027.3 hPa Calm     84% 0.0 mm 0 W/m2
23:32 16.5 °C 14.0 °C 1027.3 hPa North 1.1 km/h 6.1 km/h 85% 0.0 mm 0 W/m2
23:37 16.5 °C 13.8 °C 1027.7 hPa Calm   5.0 km/h 84% 0.0 mm 0 W/m2
23:42 16.6 °C 13.9 °C 1027.7 hPa Calm   5.0 km/h 84% 0.0 mm 0 W/m2
23:52 16.7 °C 14.0 °C 1027.3 hPa Calm   5.0 km/h 84% 0.0 mm 0 W/m2
23:57 16.7 °C 14.0 °C 1027.3 hPa North 2.6 km/h 7.2 km/h 84% 0.0 mm 0 W/m2
Northern Hawkes Bay. New Zealand Historic Data
Compliments of Weather Underground - 2 mb